KCFV/CFV METAR and TAF weather

Enter ICAO airport designator
Station Type Date Time Source
KCFV METAR 2020/07/08 21:52 UTC NOAA

KCFV 082152Z AUTO 15011G17KT 10SM FEW060 34/21 A2983 RMK AO2 SLP092 T03440206


Station Type Date Time Source
KCFV Decoded METAR 2020/07/08 21:52 UTC NOAA

COFFEYVILLE MUNICIPAL AIRPORT , KS, United States (KCFV) 37-05N 95-34W 225M
Jul 08, 2020 - 05:52 PM EDT / 2020.07.08 2152 UTC
Wind: from the SSE (150 degrees) at 13 MPH (11 KT) gusting to 20 MPH (17 KT):0
Visibility: 10 mile(s):0
Sky conditions: mostly clear
Temperature: 93.9 F (34.4 C)
Heat index: 99.1 F (37.3 C):1
Dew Point: 69.1 F (20.6 C)
Relative Humidity: 44%
Pressure (altimeter): 29.83 in. Hg (1010 hPa)
ob: KCFV 082152Z AUTO 15011G17KT 10SM FEW060 34/21 A2983 RMK AO2 SLP092 T03440206
cycle: 22

Station Type Date Time Source
KCFV TAF UTC NOAA

Error!

Example: see airport list